地図

経路データ

SID SEASON NUMBER BASIN SUBBASIN NAME ISO_TIME NATURE LAT LON WMO_WIND WMO_PRES WMO_AGENCY TRACK_TYPE DIST2LAND LANDFALL IFLAG USA_AGENCY USA_ATCF_ID USA_LAT USA_LON USA_RECORD USA_STATUS USA_WIND USA_PRES USA_SSHS USA_R34_NE USA_R34_SE USA_R34_SW USA_R34_NW USA_R50_NE USA_R50_SE USA_R50_SW USA_R50_NW USA_R64_NE USA_R64_SE USA_R64_SW USA_R64_NW USA_POCI USA_ROCI USA_RMW USA_EYE TOKYO_LAT TOKYO_LON TOKYO_GRADE TOKYO_WIND TOKYO_PRES TOKYO_R50_DIR TOKYO_R50_LONG TOKYO_R50_SHORT TOKYO_R30_DIR TOKYO_R30_LONG TOKYO_R30_SHORT TOKYO_LAND CMA_LAT CMA_LON CMA_CAT CMA_WIND CMA_PRES HKO_LAT HKO_LON HKO_CAT HKO_WIND HKO_PRES NEWDELHI_LAT NEWDELHI_LON NEWDELHI_GRADE NEWDELHI_WIND NEWDELHI_PRES NEWDELHI_CI NEWDELHI_DP NEWDELHI_POCI REUNION_LAT REUNION_LON REUNION_TYPE REUNION_WIND REUNION_PRES REUNION_TNUM REUNION_CI REUNION_RMW REUNION_R34_NE REUNION_R34_SE REUNION_R34_SW REUNION_R34_NW REUNION_R50_NE REUNION_R50_SE REUNION_R50_SW REUNION_R50_NW REUNION_R64_NE REUNION_R64_SE REUNION_R64_SW REUNION_R64_NW BOM_LAT BOM_LON BOM_TYPE BOM_WIND BOM_PRES BOM_TNUM BOM_CI BOM_RMW BOM_R34_NE BOM_R34_SE BOM_R34_SW BOM_R34_NW BOM_R50_NE BOM_R50_SE BOM_R50_SW BOM_R50_NW BOM_R64_NE BOM_R64_SE BOM_R64_SW BOM_R64_NW BOM_ROCI BOM_POCI BOM_EYE BOM_POS_METHOD BOM_PRES_METHOD NADI_LAT NADI_LON NADI_CAT NADI_WIND NADI_PRES WELLINGTON_LAT WELLINGTON_LON WELLINGTON_WIND WELLINGTON_PRES DS824_LAT DS824_LON DS824_STAGE DS824_WIND DS824_PRES TD9636_LAT TD9636_LON TD9636_STAGE TD9636_WIND TD9636_PRES TD9635_LAT TD9635_LON TD9635_WIND TD9635_PRES TD9635_ROCI NEUMANN_LAT NEUMANN_LON NEUMANN_CLASS NEUMANN_WIND NEUMANN_PRES MLC_LAT MLC_LON MLC_CLASS MLC_WIND MLC_PRES USA_GUST BOM_GUST BOM_GUST_PER REUNION_GUST REUNION_GUST_PER USA_SEAHGT USA_SEARAD_NE USA_SEARAD_SE USA_SEARAD_SW USA_SEARAD_NW STORM_SPEED STORM_DIR
1973203N13263 1973 71 EP MM EMILY 1973-07-21 12:00:00 TS 13.3000 -97.0000 30 hurdat_epa main 261 243 O________OO___ hurdat_epa EP051973 13.3000 -97.0000 TD 30 -1 13.3000 -97.0000 TC 30 13.3000 -97.0000 1 30 16 296
1973203N13263 1973 71 EP MM EMILY 1973-07-21 15:00:00 TS 13.6578 -97.7498 main 243 232 P________PP___ EP051973 13.6554 -97.7471 TD 37 0 13.6554 -97.7471 TC 37 13.6674 -97.7603 1 36 16 296
1973203N13263 1973 71 EP MM EMILY 1973-07-21 18:00:00 TS 14.0034 -98.5035 45 hurdat_epa main 236 228 O________OP___ hurdat_epa EP051973 14.0000 -98.5000 TS 45 0 14.0000 -98.5000 TC 45 14.0169 -98.5176 1 42 16 294
1973203N13263 1973 71 EP MM EMILY 1973-07-21 21:00:00 TS 14.3245 -99.2593 main 236 225 P________PP___ EP051973 14.3223 -99.2576 TS 50 0 14.3223 -99.2576 TC 50 14.3330 -99.2661 1 48 16 292
1973203N13263 1973 71 EP MM EMILY 1973-07-22 00:00:00 TS 14.6000 -100.000 55 hurdat_epa main 237 229 O________OO___ hurdat_epa EP051973 14.6000 -100.000 TS 55 0 14.6000 -100.000 TC 55 14.6000 -100.000 2 55 15 289
1973203N13263 1973 71 EP MM EMILY 1973-07-22 03:00:00 TS 14.8197 -100.715 main 238 233 P________PP___ EP051973 14.8223 -100.715 TS 60 0 14.8223 -100.715 TC 60 14.8094 -100.714 2 57 14 286
1973203N13263 1973 71 EP MM EMILY 1973-07-22 06:00:00 TS 14.9959 -101.401 65 hurdat_epa main 253 253 O________OP___ hurdat_epa EP051973 15.0000 -101.400 HU 65 1 15.0000 -101.400 TC 65 14.9793 -101.404 2 60 13 284
1973203N13263 1973 71 EP MM EMILY 1973-07-22 09:00:00 TS 15.1408 -102.066 main 268 258 P________PP___ EP051973 15.1423 -102.065 HU 65 1 15.1423 -102.065 TC 65 15.1345 -102.067 2 62 13 284
1973203N13263 1973 71 EP MM EMILY 1973-07-22 12:00:00 TS 15.3000 -102.700 65 hurdat_epa main 281 281 O________OO___ hurdat_epa EP051973 15.3000 -102.700 HU 65 1 15.3000 -102.700 TC 65 15.3000 -102.700 4 65 13 288
1973203N13263 1973 71 EP MM EMILY 1973-07-22 15:00:00 TS 15.5391 -103.317 main 288 274 P________PP___ EP051973 15.5423 -103.315 HU 82 1 15.5423 -103.315 TC 82 15.5264 -103.324 4 76 13 293
1973203N13263 1973 71 EP MM EMILY 1973-07-22 18:00:00 TS 15.7929 -103.903 100 982 hurdat_epa main 278 271 O________OP___ hurdat_epa EP051973 15.8000 -103.900 HU 100 982 3 15.8000 -103.900 TC 100 982 15.7644 -103.917 4 87 12 293
1973203N13263 1973 71 EP MM EMILY 1973-07-22 21:00:00 TS 16.0110 -104.473 main 278 272 P________PP___ EP051973 16.0149 -104.473 HU 105 3 16.0149 -104.473 TC 105 15.9953 -104.477 4 98 11 291
1973203N13263 1973 71 EP MM EMILY 1973-07-23 00:00:00 TS 16.2000 -105.000 110 hurdat_epa main 283 283 O________OO___ hurdat_epa EP051973 16.2000 -105.000 HU 110 3 16.2000 -105.000 TC 110 16.2000 -105.000 4 110 10 290
1973203N13263 1973 71 EP MM EMILY 1973-07-23 03:00:00 TS 16.3624 -105.466 main 300 300 P________PP___ EP051973 16.3648 -105.465 HU 110 3 16.3648 -105.465 TC 110 16.3528 -105.470 4 110 9 289
1973203N13263 1973 71 EP MM EMILY 1973-07-23 06:00:00 TS 16.4957 -105.902 110 hurdat_epa main 323 321 O________OP___ hurdat_epa EP051973 16.5000 -105.900 HU 110 3 16.5000 -105.900 TC 110 16.4787 -105.908 4 110 9 286
1973203N13263 1973 71 EP MM EMILY 1973-07-23 09:00:00 TS 16.5979 -106.337 main 331 331 P________PP___ EP051973 16.5998 -106.335 HU 115 4 16.5998 -106.335 TC 115 16.5903 -106.342 4 110 9 283
1973203N13263 1973 71 EP MM EMILY 1973-07-23 12:00:00 TS 16.7000 -106.800 120 hurdat_epa main 350 350 O________OO___ hurdat_epa EP051973 16.7000 -106.800 HU 120 4 16.7000 -106.800 TC 120 16.7000 -106.800 4 110 10 285
1973203N13263 1973 71 EP MM EMILY 1973-07-23 15:00:00 TS 16.8483 -107.337 main 376 376 P________PP___ EP051973 16.8500 -107.335 HU 115 4 16.8500 -107.335 TC 115 16.8416 -107.345 4 107 11 286
1973203N13263 1973 71 EP MM EMILY 1973-07-23 18:00:00 TS 16.9961 -107.903 110 972 hurdat_epa main 407 407 O________OP___ hurdat_epa EP051973 17.0000 -107.900 HU 110 972 3 17.0000 -107.900 TC 110 972 16.9805 -107.915 4 105 11 284
1973203N13263 1973 71 EP MM EMILY 1973-07-23 21:00:00 TS 17.1128 -108.473 main 445 445 P________PP___ EP051973 17.1150 -108.473 HU 105 3 17.1150 -108.473 TC 105 17.1041 -108.477 4 102 11 281
1973203N13263 1973 71 EP MM EMILY 1973-07-24 00:00:00 TS 17.2000 -109.000 100 hurdat_epa main 480 480 O________OO___ hurdat_epa EP051973 17.2000 -109.000 HU 100 3 17.2000 -109.000 TC 100 17.2000 -109.000 4 100 9 279
1973203N13263 1973 71 EP MM EMILY 1973-07-24 03:00:00 TS 17.2616 -109.427 main 508 508 P________PP___ EP051973 17.2648 -109.423 HU 100 3 17.2648 -109.423 TC 100 17.2490 -109.444 4 100 8 277
1973203N13263 1973 71 EP MM EMILY 1973-07-24 06:00:00 TS 17.2943 -109.809 100 hurdat_epa main 544 544 O________OP___ hurdat_epa EP051973 17.3000 -109.800 HU 100 3 17.3000 -109.800 TC 100 17.2716 -109.846 4 100 7 273
1973203N13263 1973 71 EP MM EMILY 1973-07-24 09:00:00 TS 17.2966 -110.205 main 580 580 P________PP___ EP051973 17.2999 -110.200 HU 100 3 17.2999 -110.200 TC 100 17.2834 -110.225 4 100 8 270
1973203N13263 1973 71 EP MM EMILY 1973-07-24 12:00:00 TS 17.3000 -110.600 100 hurdat_epa main 616 616 O________OO___ hurdat_epa EP051973 17.3000 -110.600 HU 100 3 17.3000 -110.600 TC 100 17.3000 -110.600 4 100 8 273
1973203N13263 1973 71 EP MM EMILY 1973-07-24 15:00:00 TS 17.3424 -110.996 main 634 625 P________PP___ EP051973 17.3424 -111.000 HU 82 1 17.3424 -111.000 TC 82 17.3423 -110.980 4 92 8 277
1973203N13263 1973 71 EP MM EMILY 1973-07-24 18:00:00 TS 17.3983 -111.393 65 hurdat_epa main 632 632 O________OP___ hurdat_epa EP051973 17.4000 -111.400 HU 65 1 17.4000 -111.400 TC 65 17.3917 -111.363 4 85 8 278
1973203N13263 1973 71 EP MM EMILY 1973-07-24 21:00:00 TS 17.4489 -111.781 main 643 632 P________PP___ EP051973 17.4498 -111.785 HU 65 1 17.4498 -111.785 TC 65 17.4453 -111.764 4 77 8 278
1973203N13263 1973 71 EP MM EMILY 1973-07-25 00:00:00 TS 17.5000 -112.200 65 989 hurdat_epa main 646 646 O________OO___ hurdat_epa EP051973 17.5000 -112.200 HU 65 989 1 17.5000 -112.200 TC 65 989 17.5000 -112.200 4 70 9 277
1973203N13263 1973 71 EP MM EMILY 1973-07-25 03:00:00 TS 17.5498 -112.673 main 666 656 P________PP___ EP051973 17.5499 -112.678 HU 65 1 17.5499 -112.678 TC 65 17.5493 -112.657 4 68 10 276
1973203N13263 1973 71 EP MM EMILY 1973-07-25 06:00:00 TS 17.5998 -113.191 65 hurdat_epa main 680 680 O________OP___ hurdat_epa EP051973 17.6000 -113.200 HU 65 1 17.6000 -113.200 TC 65 17.5989 -113.153 4 67 10 276
1973203N13263 1973 71 EP MM EMILY 1973-07-25 09:00:00 TS 17.6496 -113.716 main 707 697 P________PP___ EP051973 17.6497 -113.720 HU 65 1 17.6497 -113.720 TC 65 17.6490 -113.697 4 66 11 275
1973203N13263 1973 71 EP MM EMILY 1973-07-25 12:00:00 TS 17.7000 -114.300 65 hurdat_epa main 734 734 O________OO___ hurdat_epa EP051973 17.7000 -114.300 HU 65 1 17.7000 -114.300 TC 65 17.7000 -114.300 4 65 12 275
1973203N13263 1973 71 EP MM EMILY 1973-07-25 15:00:00 TS 17.7477 -114.979 main 780 772 P________PP___ EP051973 17.7499 -114.970 HU 60 0 17.7499 -114.970 TC 60 17.7390 -115.012 4 58 14 274
1973203N13263 1973 71 EP MM EMILY 1973-07-25 18:00:00 TS 17.7958 -115.715 55 990 hurdat_epa main 823 823 O________OP___ hurdat_epa EP051973 17.8000 -115.700 TS 55 990 0 17.8000 -115.700 TC 55 990 17.7792 -115.773 4 52 14 274
1973203N13263 1973 71 EP MM EMILY 1973-07-25 21:00:00 TS 17.8461 -116.488 main 885 885 P________PP___ EP051973 17.8502 -116.480 TS 47 0 17.8502 -116.480 TC 47 17.8296 -116.522 4 46 14 274
1973203N13263 1973 71 EP MM EMILY 1973-07-26 00:00:00 TS 17.9000 -117.200 40 hurdat_epa main 925 925 O________OO___ hurdat_epa EP051973 17.9000 -117.200 TS 40 0 17.9000 -117.200 TC 40 17.9000 -117.200 2 40 12 274
1973203N13263 1973 71 EP MM EMILY 1973-07-26 03:00:00 TS 17.9332 -117.751 main 962 959 P________PP___ EP051973 17.9271 -117.753 TS 40 0 17.9271 -117.753 TC 40 17.9575 -117.746 2 40 10 277
1973203N13263 1973 71 EP MM EMILY 1973-07-26 06:00:00 TS 18.0087 -118.203 40 hurdat_epa main 979 979 O________OP___ hurdat_epa EP051973 18.0000 -118.200 TS 40 0 18.0000 -118.200 TC 40 18.0436 -118.213 2 40 9 285
1973203N13263 1973 71 EP MM EMILY 1973-07-26 09:00:00 TS 18.1605 -118.623 main 989 989 P________PP___ EP051973 18.1549 -118.623 TS 40 0 18.1549 -118.623 TC 40 18.1829 -118.624 2 40 9 297
1973203N13263 1973 71 EP MM EMILY 1973-07-26 12:00:00 TS 18.4000 -119.000 40 hurdat_epa main 1002 1000 O________OO___ hurdat_epa EP051973 18.4000 -119.000 TS 40 0 18.4000 -119.000 TC 40 18.4000 -119.000 2 40 9 308
1973203N13263 1973 71 EP MM EMILY 1973-07-26 15:00:00 TS 18.7107 -119.356 main 1008 1000 P________PP___ EP051973 18.7124 -119.358 TS 37 0 18.7124 -119.358 TC 37 18.7038 -119.351 2 38 10 317
1973203N13263 1973 71 EP MM EMILY 1973-07-26 18:00:00 TS 19.0973 -119.696 35 hurdat_epa main 1001 995 O________OP___ hurdat_epa EP051973 19.1000 -119.700 TS 35 0 19.1000 -119.700 TC 35 19.0863 -119.679 2 37 10 321
1973203N13263 1973 71 EP MM EMILY 1973-07-26 21:00:00 TS 19.5090 -120.032 main 997 992 P________PP___ EP051973 19.5048 -120.035 TS 35 0 19.5048 -120.035 TC 35 19.5256 -120.017 2 36 11 324
1973203N13263 1973 71 EP MM EMILY 1973-07-27 00:00:00 TS 20.0000 -120.400 35 hurdat_epa main 998 982 O________OO___ hurdat_epa EP051973 20.0000 -120.400 TS 35 0 20.0000 -120.400 TC 35 20.0000 -120.400 2 35 14 326
1973203N13263 1973 71 EP MM EMILY 1973-07-27 03:00:00 TS 20.6426 -120.837 main 982 965 P________PP___ EP051973 20.6648 -120.812 TS 35 0 20.6648 -120.812 TC 35 20.5537 -120.937 2 35 15 325
1973203N13263 1973 71 EP MM EMILY 1973-07-27 06:00:00 TS 21.2644 -121.343 35 hurdat_epa main 957 955 O________OP___ hurdat_epa EP051973 21.3000 -121.300 TS 35 0 21.3000 -121.300 TC 35 21.1218 -121.513 2 35 15 316
1973203N13263 1973 71 EP MM EMILY 1973-07-27 09:00:00 TS 21.7241 -121.962 main 973 965 P________PP___ EP051973 21.7480 -121.937 TS 35 0 21.7480 -121.937 TC 35 21.6288 -122.059 2 35 13 304
1973203N13263 1973 71 EP MM EMILY 1973-07-27 12:00:00 TS 22.0000 -122.500 35 hurdat_epa main 988 988 O________OO___ hurdat_epa EP051973 22.0000 -122.500 TS 35 0 22.0000 -122.500 TC 35 22.0000 -122.500 2 35 8 295
1973203N13263 1973 71 EP MM EMILY 1973-07-27 15:00:00 TS 22.0703 -122.779 main 1004 1004 P________PP___ EP051973 22.0521 -122.783 TS 35 0 22.0521 -122.783 TC 35 22.1427 -122.763 2 35 4 275
1973203N13263 1973 71 EP MM EMILY 1973-07-27 18:00:00 TS 22.0298 -122.902 35 hurdat_epa main 1019 1019 O________OP___ hurdat_epa EP051973 22.0000 -122.900 TS 35 0 22.0000 -122.900 TC 35 22.1488 -122.910 2 35 2 254
1973203N13263 1973 71 EP MM EMILY 1973-07-27 21:00:00 TS 22.0161 -122.979 main 1027 1027 P________PP___ EP051973 22.0000 -122.980 TS 35 0 22.0000 -122.980 TC 35 22.0806 -122.977 2 35 1 252
1973203N13263 1973 71 EP MM EMILY 1973-07-28 00:00:00 TS 22.0000 -123.000 35 hurdat_epa main 1027 1027 O________OO___ hurdat_epa EP051973 22.0000 -123.000 TS 35 0 22.0000 -123.000 TC 35 22.0000 -123.000 2 35 0 0
1973203N13263 1973 71 EP MM EMILY 1973-07-28 03:00:00 TS 21.9913 -123.008 main 1027 1027 P________PP___ EP051973 22.0000 -123.008 TS 32 -1 22.0000 -123.008 TC 32 21.9566 -123.008 2 0 0
1973203N13263 1973 71 EP MM EMILY 1973-07-28 06:00:00 TS 21.9901 -123.002 30 hurdat_epa main 1027 1027 O________OP___ hurdat_epa EP051973 22.0000 -123.000 TD 30 -1 22.0000 -123.000 TC 30 21.9504 -123.009 2 0 0
1973203N13263 1973 71 EP MM EMILY 1973-07-28 09:00:00 TS 21.9938 -122.999 main 1027 1027 P________PP___ EP051973 22.0000 -122.998 TD 27 -1 22.0000 -122.998 TC 27 21.9690 -123.006 2 0 0
1973203N13263 1973 71 EP MM EMILY 1973-07-28 12:00:00 TS 22.0000 -123.000 25 hurdat_epa main 1027 O________OO___ hurdat_epa EP051973 22.0000 -123.000 TD 25 -1 22.0000 -123.000 TC 25 22.0000 -123.000 6 0 0

IBTrACS Databaseについて

本データベースは、米国NOAAが公開する1842年以降の世界の熱帯低気圧のベストトラックデータアーカイブInternational Best Track Archive for Climate Stewardship (IBTrACS)を、ウェブで閲覧しやすい形式に変換したものです。

最終更新日:2021-10-19